createdAt,value
2019-04-23T00:00:03.466Z,98156.20
2019-04-23T00:02:33.211Z,98162.45
2019-04-23T00:05:08.264Z,98163.37
2019-04-23T00:07:48.421Z,98167.45
2019-04-23T00:10:25.986Z,98171.13
2019-04-23T00:12:53.078Z,98167.97
2019-04-23T00:15:45.419Z,98165.92
2019-04-23T00:18:12.266Z,98167.20
2019-04-23T00:20:42.379Z,98167.79
2019-04-23T00:23:19.107Z,98159.86
2019-04-23T00:28:36.195Z,98162.06
2019-04-23T00:31:13.343Z,98156.01
2019-04-23T00:33:44.446Z,98151.31
2019-04-23T00:36:22.946Z,98149.84
2019-04-23T00:38:50.048Z,98140.63
2019-04-23T00:41:25.068Z,98140.87
2019-04-23T00:44:01.867Z,98144.52
2019-04-23T00:46:36.807Z,98143.63
2019-04-23T00:49:12.102Z,98139.58
2019-04-23T00:51:45.989Z,98137.27
2019-04-23T00:54:17.763Z,98143.58
2019-04-23T00:56:54.508Z,98137.44
2019-04-23T00:59:33.143Z,98134.18
2019-04-23T01:02:01.196Z,98133.87
2019-04-23T01:04:39.698Z,98138.79
2019-04-23T01:07:12.849Z,98136.69
2019-04-23T01:09:53.447Z,98135.70
2019-04-23T01:12:35.940Z,98139.88
2019-04-23T01:14:55.632Z,98140.45
2019-04-23T01:18:18.668Z,98142.95
2019-04-23T01:20:08.118Z,98145.92
2019-04-23T01:22:29.370Z,98151.14
2019-04-23T01:25:24.665Z,98151.83
2019-04-23T01:28:23.471Z,98154.08
2019-04-23T01:33:34.099Z,98158.77
2019-04-23T01:36:20.583Z,98153.95
2019-04-23T01:38:41.814Z,98152.54
2019-04-23T01:41:13.337Z,98142.89
2019-04-23T01:43:47.728Z,98149.22
2019-04-23T01:46:25.068Z,98143.63
2019-04-23T01:48:58.652Z,98140.41
2019-04-23T01:51:38.155Z,98142.59
2019-04-23T01:54:06.537Z,98141.91
2019-04-23T01:56:33.877Z,98139.96
2019-04-23T02:04:22.903Z,98156.59
2019-04-23T02:07:04.486Z,98153.70
2019-04-23T02:09:37.223Z,98154.88
2019-04-23T02:12:11.141Z,98147.90
2019-04-23T02:14:43.339Z,98156.26
2019-04-23T02:17:15.804Z,98161.91
2019-04-23T02:19:51.351Z,98159.78
2019-04-23T02:22:58.687Z,98173.58
2019-04-23T02:25:39.648Z,98179.63
2019-04-23T02:28:07.565Z,98178.55
2019-04-23T02:31:12.596Z,98172.27
2019-04-23T02:33:30.107Z,98168.75
2019-04-23T02:38:31.844Z,98168.53
2019-04-23T02:43:29.901Z,98173.84
2019-04-23T02:48:52.464Z,98169.95
2019-04-23T02:51:30.840Z,98167.91
2019-04-23T03:02:47.868Z,98173.58
2019-04-23T03:04:16.817Z,98172.26
2019-04-23T03:06:50.049Z,98177.52
2019-04-23T03:09:23.308Z,98173.91
2019-04-23T03:12:08.242Z,98177.23
2019-04-23T03:14:32.800Z,98171.70
2019-04-23T03:17:10.746Z,98176.48
2019-04-23T03:20:09.681Z,98191.28
2019-04-23T03:25:40.133Z,98190.73
2019-04-23T03:28:21.239Z,98198.97
2019-04-23T03:32:31.824Z,98207.78
2019-04-23T03:41:17.176Z,98231.42
2019-04-23T03:54:21.796Z,98229.53
2019-04-23T03:59:19.895Z,98243.43
2019-04-23T04:02:03.434Z,98246.98
2019-04-23T04:04:31.761Z,98248.17
2019-04-23T04:07:01.226Z,98252.17
2019-04-23T04:09:34.020Z,98251.01
2019-04-23T04:12:07.719Z,98256.97
2019-04-23T04:19:47.902Z,98263.55
2019-04-23T04:22:32.901Z,98270.66
2019-04-23T04:25:01.626Z,98275.53
2019-04-23T04:27:38.415Z,98278.19
2019-04-23T04:30:10.759Z,98277.46
2019-04-23T04:35:22.379Z,98275.09
2019-04-23T04:40:36.435Z,98280.28
2019-04-23T04:45:42.476Z,98281.64
2019-04-23T04:47:58.596Z,98287.53
2019-04-23T04:50:46.933Z,98287.33
2019-04-23T04:53:23.272Z,98293.40
2019-04-23T05:03:29.689Z,98296.46
2019-04-23T05:06:16.175Z,98298.91
2019-04-23T05:08:48.149Z,98300.04
2019-04-23T05:11:30.007Z,98303.17
2019-04-23T05:16:29.267Z,98304.91
2019-04-23T05:21:46.879Z,98308.16
2019-04-23T05:24:16.344Z,98303.27
2019-04-23T05:26:41.258Z,98309.05
2019-04-23T05:29:20.058Z,98306.08
2019-04-23T05:31:58.192Z,98299.80
2019-04-23T05:34:35.721Z,98305.89
2019-04-23T05:37:04.197Z,98304.69
2019-04-23T05:39:52.144Z,98305.02
2019-04-23T05:44:54.295Z,98300.81
2019-04-23T05:47:27.836Z,98305.80
2019-04-23T05:49:58.965Z,98311.67
2019-04-23T05:52:41.334Z,98309.78
2019-04-23T05:55:12.064Z,98311.92
2019-04-23T05:57:38.624Z,98316.34
2019-04-23T06:00:17.545Z,98312.61
2019-04-23T06:02:57.289Z,98303.45
2019-04-23T06:05:25.022Z,98316.17
2019-04-23T06:08:05.620Z,98311.03
2019-04-23T06:10:34.313Z,98312.18
2019-04-23T06:13:12.328Z,98321.43
2019-04-23T06:15:43.805Z,98327.14
2019-04-23T06:18:24.517Z,98337.55
2019-04-23T06:20:55.578Z,98331.24
2019-04-23T06:28:35.154Z,98333.95
2019-04-23T06:31:20.533Z,98332.92
2019-04-23T06:33:48.465Z,98337.08
2019-04-23T06:36:39.935Z,98342.55
2019-04-23T06:41:30.870Z,98351.80
2019-04-23T06:46:56.772Z,98365.85
2019-04-23T06:49:37.297Z,98366.89
2019-04-23T06:52:15.196Z,98360.52
2019-04-23T06:54:42.553Z,98369.60
2019-04-23T07:00:00.593Z,98375.75
2019-04-23T07:02:27.279Z,98377.01
2019-04-23T07:10:11.423Z,98381.84
2019-04-23T07:12:47.201Z,98383.45
2019-04-23T07:15:32.132Z,98383.45
2019-04-23T07:17:47.787Z,98384.72
2019-04-23T07:20:28.608Z,98384.72
2019-04-23T07:23:10.622Z,98395.27
2019-04-23T07:25:34.650Z,98397.10
2019-04-23T07:28:14.938Z,98392.28
2019-04-23T07:30:39.884Z,98399.38
2019-04-23T07:33:18.670Z,98413.31
2019-04-23T07:35:52.036Z,98413.31
2019-04-23T07:39:09.811Z,98418.16
2019-04-23T07:44:35.500Z,98421.24
2019-04-23T07:50:09.810Z,98438.17
2019-04-23T07:55:21.691Z,98435.75
2019-04-23T07:57:43.290Z,98441.61
2019-04-23T08:00:18.167Z,98442.64
2019-04-23T08:02:57.859Z,98438.73
2019-04-23T08:05:26.412Z,98448.74
2019-04-23T08:08:00.243Z,98451.55
2019-04-23T08:10:35.733Z,98451.55
2019-04-23T08:15:51.954Z,98460.70
2019-04-23T08:18:23.275Z,98462.84
2019-04-23T08:20:54.048Z,98466.93
2019-04-23T08:24:01.646Z,98466.38
2019-04-23T08:27:08.281Z,98463.66
2019-04-23T08:29:30.574Z,98471.28
2019-04-23T08:32:15.001Z,98481.19
2019-04-23T08:39:57.100Z,98471.58
2019-04-23T08:42:46.887Z,98471.02
2019-04-23T08:45:28.530Z,98470.15
2019-04-23T08:48:17.317Z,98473.97
2019-04-23T08:50:50.684Z,98473.30
2019-04-23T08:53:35.737Z,98483.13
2019-04-23T08:56:15.102Z,98479.62
2019-04-23T09:01:08.939Z,98481.84
2019-04-23T09:03:39.150Z,98480.75
2019-04-23T09:06:18.799Z,98473.55
2019-04-23T09:08:49.523Z,98478.80
2019-04-23T09:11:41.822Z,98477.84
2019-04-23T09:16:46.883Z,98478.50
2019-04-23T09:19:16.025Z,98472.62
2019-04-23T09:21:53.626Z,98465.34
2019-04-23T09:24:23.016Z,98477.48
2019-04-23T09:27:03.922Z,98471.02
2019-04-23T09:29:41.155Z,98466.65
2019-04-23T09:32:23.916Z,98468.94
2019-04-23T09:34:58.679Z,98478.20
2019-04-23T09:37:47.196Z,98476.18
2019-04-23T09:41:11.566Z,98480.96
2019-04-23T09:43:40.298Z,98474.64
2019-04-23T09:46:27.329Z,98477.32
2019-04-23T09:54:09.754Z,98468.89
2019-04-23T09:56:42.800Z,98459.17
2019-04-23T10:01:40.928Z,98460.34
2019-04-23T10:04:08.727Z,98462.17
2019-04-23T10:06:33.373Z,98455.28
2019-04-23T10:09:10.015Z,98458.30
2019-04-23T10:11:41.069Z,98448.54
2019-04-23T10:14:14.674Z,98454.27
2019-04-23T10:16:47.524Z,98463.71
2019-04-23T10:19:22.255Z,98454.66
2019-04-23T10:21:55.667Z,98454.88
2019-04-23T10:24:28.798Z,98466.09
2019-04-23T10:27:02.068Z,98463.54
2019-04-23T10:29:38.440Z,98466.37
2019-04-23T10:32:11.770Z,98457.91
2019-04-23T10:34:54.232Z,98463.81
2019-04-23T10:37:30.453Z,98450.33
2019-04-23T10:39:56.680Z,98450.80
2019-04-23T10:42:28.981Z,98454.03
2019-04-23T10:45:30.299Z,98455.70
2019-04-23T10:48:49.667Z,98458.12
2019-04-23T10:51:31.517Z,98459.05
2019-04-23T10:54:16.080Z,98457.93
2019-04-23T10:57:02.118Z,98461.19
2019-04-23T10:59:35.057Z,98456.63
2019-04-23T11:02:29.042Z,98456.96
2019-04-23T11:07:28.633Z,98466.28
2019-04-23T11:10:17.406Z,98460.82
2019-04-23T11:13:10.638Z,98470.91
2019-04-23T11:15:55.784Z,98472.62
2019-04-23T11:18:08.820Z,98472.00
2019-04-23T11:21:09.325Z,98477.55
2019-04-23T11:23:29.097Z,98477.08
2019-04-23T11:26:06.684Z,98477.32
2019-04-23T11:28:37.760Z,98478.64
2019-04-23T11:31:31.250Z,98482.44
2019-04-23T11:34:01.093Z,98480.41
2019-04-23T11:36:49.941Z,98480.83
2019-04-23T11:39:05.370Z,98476.43
2019-04-23T11:41:53.057Z,98477.23
2019-04-23T11:44:23.685Z,98467.40
2019-04-23T11:52:23.476Z,98458.52
2019-04-23T11:54:38.954Z,98469.34
2019-04-23T12:02:40.215Z,98475.27
2019-04-23T12:05:37.900Z,98481.53
2019-04-23T12:08:36.728Z,98477.48
2019-04-23T12:14:24.273Z,98467.45
2019-04-23T12:20:02.974Z,98462.76
2019-04-23T12:22:22.229Z,98462.75
2019-04-23T12:25:06.546Z,98453.29
2019-04-23T12:27:31.144Z,98457.98
2019-04-23T12:30:10.282Z,98448.28
2019-04-23T12:32:47.967Z,98442.80
2019-04-23T12:35:21.451Z,98438.84
2019-04-23T12:40:49.254Z,98423.77
2019-04-23T12:45:43.165Z,98430.81
2019-04-23T12:48:36.794Z,98430.75
2019-04-23T12:53:38.342Z,98425.13
2019-04-23T12:56:02.481Z,98424.38
2019-04-23T12:58:32.228Z,98411.97
2019-04-23T13:01:25.688Z,98402.42
2019-04-23T13:03:45.999Z,98398.08
2019-04-23T13:06:20.734Z,98401.80
2019-04-23T13:09:19.548Z,98400.98
2019-04-23T13:11:40.778Z,98395.92
2019-04-23T13:14:17.382Z,98399.34
2019-04-23T13:16:58.986Z,98395.59
2019-04-23T13:19:33.051Z,98391.23
2019-04-23T13:24:50.111Z,98386.59
2019-04-23T13:27:32.195Z,98387.97
2019-04-23T13:30:02.061Z,98389.48
2019-04-23T13:32:36.042Z,98392.54
2019-04-23T13:35:19.892Z,98390.27
2019-04-23T13:37:42.868Z,98397.12
2019-04-23T13:40:17.600Z,98398.64
2019-04-23T13:45:49.748Z,98390.75
2019-04-23T13:48:00.665Z,98396.51
2019-04-23T13:55:37.907Z,98404.42
2019-04-23T13:58:15.210Z,98396.42
2019-04-23T14:00:55.752Z,98399.63
2019-04-23T14:03:30.710Z,98401.09
2019-04-23T14:08:55.255Z,98407.93
2019-04-23T14:11:23.255Z,98410.82
2019-04-23T14:13:55.067Z,98416.17
2019-04-23T14:19:02.486Z,98395.85
2019-04-23T14:26:41.660Z,98395.16
2019-04-23T14:29:23.201Z,98393.70
2019-04-23T14:31:57.501Z,98392.93
2019-04-23T14:34:27.219Z,98391.45
2019-04-23T14:39:41.027Z,98391.45
2019-04-23T14:42:35.190Z,98386.36
2019-04-23T14:45:23.203Z,98381.00
2019-04-23T14:47:55.078Z,98388.72
2019-04-23T14:50:34.547Z,98378.52
2019-04-23T14:53:06.883Z,98385.67
2019-04-23T14:58:12.578Z,98384.81
2019-04-23T15:00:43.612Z,98387.76
2019-04-23T15:03:25.237Z,98392.61
2019-04-23T15:05:56.374Z,98387.60
2019-04-23T15:11:17.133Z,98383.34
2019-04-23T15:29:02.918Z,98359.91
2019-04-23T15:31:57.217Z,98346.21
2019-04-23T15:34:25.795Z,98344.56
2019-04-23T15:38:14.603Z,98337.98
2019-04-23T15:44:52.876Z,98330.84
2019-04-23T15:47:26.485Z,98319.95
2019-04-23T15:50:03.201Z,98303.01
2019-04-23T15:52:37.523Z,98296.77
2019-04-23T15:55:01.619Z,98298.42
2019-04-23T16:00:13.051Z,98296.08
2019-04-23T16:02:20.053Z,98296.08
2019-04-23T16:04:53.400Z,98284.97
2019-04-23T16:07:41.368Z,98273.33
2019-04-23T16:13:02.342Z,98279.49
2019-04-23T16:15:35.495Z,98283.67
2019-04-23T16:18:28.190Z,98284.76
2019-04-23T16:21:03.726Z,98282.20
2019-04-23T16:23:26.440Z,98286.63
2019-04-23T16:26:09.471Z,98284.30
2019-04-23T16:29:00.295Z,98296.54
2019-04-23T16:31:26.470Z,98304.77
2019-04-23T16:34:08.638Z,98304.53
2019-04-23T16:36:32.490Z,98305.31
2019-04-23T16:39:06.192Z,98305.44
2019-04-23T16:41:46.667Z,98295.07
2019-04-23T16:47:32.867Z,98301.41
2019-04-23T16:49:46.091Z,98305.47
2019-04-23T16:52:17.714Z,98312.55
2019-04-23T16:54:58.332Z,98311.29
2019-04-23T17:00:06.695Z,98298.95
2019-04-23T17:02:26.120Z,98298.12
2019-04-23T17:05:02.731Z,98298.23
2019-04-23T17:07:25.603Z,98298.23
2019-04-23T17:12:33.843Z,98300.22
2019-04-23T17:15:21.810Z,98299.44
2019-04-23T17:17:49.486Z,98307.88
2019-04-23T17:20:28.925Z,98313.34
2019-04-23T17:22:56.611Z,98309.55
2019-04-23T17:25:25.889Z,98306.91
2019-04-23T17:28:12.712Z,98312.50
2019-04-23T17:33:33.201Z,98309.48
2019-04-23T17:36:21.080Z,98311.20
2019-04-23T17:38:55.284Z,98315.89
2019-04-23T17:41:31.632Z,98318.55
2019-04-23T17:44:12.572Z,98308.81
2019-04-23T17:46:38.592Z,98310.16
2019-04-23T17:49:10.794Z,98302.52
2019-04-23T17:51:44.382Z,98307.91
2019-04-23T17:57:13.118Z,98315.53
2019-04-23T17:59:27.895Z,98325.18
2019-04-23T18:02:27.327Z,98323.03
2019-04-23T18:04:38.741Z,98325.39
2019-04-23T18:07:05.385Z,98329.59
2019-04-23T18:09:51.663Z,98324.70
2019-04-23T18:12:28.941Z,98324.78
2019-04-23T18:14:48.330Z,98324.17
2019-04-23T18:17:35.580Z,98331.47
2019-04-23T18:20:13.412Z,98328.29
2019-04-23T18:22:48.808Z,98323.35
2019-04-23T18:25:16.582Z,98325.84
2019-04-23T18:27:51.260Z,98326.52
2019-04-23T18:30:49.460Z,98333.59
2019-04-23T18:35:58.085Z,98321.84
2019-04-23T18:38:43.763Z,98321.67
2019-04-23T18:43:48.318Z,98332.76
2019-04-23T18:46:25.439Z,98326.61
2019-04-23T18:48:49.759Z,98323.72
2019-04-23T18:51:27.092Z,98323.89
2019-04-23T18:53:52.656Z,98328.02
2019-04-23T18:59:11.019Z,98331.42
2019-04-23T19:02:30.986Z,98328.24
2019-04-23T19:05:07.268Z,98333.43
2019-04-23T19:08:01.433Z,98329.81
2019-04-23T19:11:04.969Z,98342.81
2019-04-23T19:13:39.839Z,98342.22
2019-04-23T19:16:08.087Z,98335.58
2019-04-23T19:18:52.641Z,98328.38
2019-04-23T19:21:36.291Z,98326.64
2019-04-23T19:23:51.006Z,98319.05
2019-04-23T19:26:45.840Z,98301.33
2019-04-23T19:29:00.436Z,98302.84
2019-04-23T19:39:46.996Z,98326.26
2019-04-23T19:44:41.272Z,98329.52
2019-04-23T19:47:16.961Z,98339.32
2019-04-23T19:49:44.802Z,98331.42
2019-04-23T19:52:13.835Z,98336.61
2019-04-23T19:57:42.282Z,98331.89
2019-04-23T19:59:58.274Z,98328.54
2019-04-23T20:02:55.451Z,98325.08
2019-04-23T20:04:59.524Z,98319.39
2019-04-23T20:07:56.595Z,98317.21
2019-04-23T20:10:13.860Z,98326.15
2019-04-23T20:12:44.814Z,98334.13
2019-04-23T20:15:30.486Z,98339.14
2019-04-23T20:17:54.131Z,98339.81
2019-04-23T20:20:35.288Z,98343.28
2019-04-23T20:23:11.865Z,98341.45
2019-04-23T20:28:55.078Z,98342.89
2019-04-23T20:32:05.522Z,98351.92
2019-04-23T20:34:18.913Z,98352.28
2019-04-23T20:36:38.507Z,98360.31
2019-04-23T20:39:09.290Z,98370.08
2019-04-23T20:47:10.251Z,98356.39
2019-04-23T20:49:48.033Z,98345.27
2019-04-23T20:57:48.455Z,98342.84
2019-04-23T21:00:12.308Z,98341.78
2019-04-23T21:03:25.399Z,98339.96
2019-04-23T21:05:41.221Z,98336.48
2019-04-23T21:08:30.367Z,98327.45
2019-04-23T21:10:51.049Z,98327.76
2019-04-23T21:13:43.347Z,98329.19
2019-04-23T21:15:57.904Z,98324.10
2019-04-23T21:21:06.677Z,98305.06
2019-04-23T21:23:38.380Z,98305.52
2019-04-23T21:26:05.608Z,98314.89
2019-04-23T21:28:50.703Z,98312.53
2019-04-23T21:31:26.661Z,98296.39
2019-04-23T21:34:04.202Z,98297.15
2019-04-23T21:36:40.343Z,98303.99
2019-04-23T21:39:34.586Z,98301.11
2019-04-23T21:42:14.501Z,98293.98
2019-04-23T21:44:40.432Z,98300.44
2019-04-23T21:47:09.115Z,98296.48
2019-04-23T21:50:04.697Z,98287.67
2019-04-23T21:52:18.355Z,98282.52
2019-04-23T21:57:35.393Z,98271.97
2019-04-23T21:59:59.345Z,98263.78
2019-04-23T22:02:49.223Z,98268.02
2019-04-23T22:05:17.471Z,98261.03
2019-04-23T22:07:51.571Z,98245.47
2019-04-23T22:10:20.492Z,98244.57
2019-04-23T22:13:02.621Z,98243.50
2019-04-23T22:15:39.368Z,98239.95
2019-04-23T22:17:59.859Z,98246.48
2019-04-23T22:20:44.086Z,98242.91
2019-04-23T22:25:48.663Z,98229.17
2019-04-23T22:28:18.063Z,98233.34
2019-04-23T22:31:01.337Z,98230.91
2019-04-23T22:33:25.248Z,98225.07
2019-04-23T22:38:29.433Z,98212.02
2019-04-23T22:41:04.797Z,98214.76
2019-04-23T22:43:43.036Z,98215.66
2019-04-23T22:46:20.697Z,98230.75
2019-04-23T22:49:07.152Z,98231.29
2019-04-23T22:54:05.438Z,98249.84
2019-04-23T22:56:43.968Z,98244.87
2019-04-23T23:04:31.391Z,98262.73
2019-04-23T23:07:23.568Z,98264.27
2019-04-23T23:09:44.010Z,98265.09
2019-04-23T23:12:16.731Z,98269.59
2019-04-23T23:14:54.788Z,98276.44
2019-04-23T23:17:24.297Z,98266.80
2019-04-23T23:20:16.067Z,98264.66
2019-04-23T23:22:51.757Z,98267.77
2019-04-23T23:25:19.093Z,98270.04
2019-04-23T23:27:50.104Z,98268.17
2019-04-23T23:30:19.609Z,98267.24
2019-04-23T23:33:11.527Z,98264.75
2019-04-23T23:35:54.033Z,98257.14
2019-04-23T23:41:12.925Z,98252.39
2019-04-23T23:44:06.060Z,98248.56
2019-04-23T23:48:40.690Z,98250.11
2019-04-23T23:53:58.584Z,98237.67
2019-04-23T23:56:19.345Z,98234.64
2019-04-23T23:59:03.852Z,98239.41
